Time;durP1;ratioP1;P1;durP2;ratioP2;P2;SDS_P1;SDS_P2;PMS_P1;PMS_P2;Temp;Humidity;BMP_temperature;BMP_pressure;BME280_temperature;BME280_humidity;BME280_pressure;Samples;Min_cycle;Max_cycle;Signal;HPM_P1;HPM_P2
2023/08/10 00:01:56;;;;;;;4.32;2.50;;;13.40;99.90;;;-144.05;82.91;56914.69;6162976;23;20012;-83
2023/08/10 00:04:23;;;;;;;3.30;2.08;;;13.30;99.90;;;-144.05;82.94;56927.41;6161577;23;20098;-85
2023/08/10 00:06:49;;;;;;;3.65;2.38;;;13.30;99.90;;;-144.05;82.84;56940.16;6160963;23;20068;-85
2023/08/10 00:09:15;;;;;;;5.38;2.50;;;13.30;99.90;;;-144.05;82.96;56914.69;6187712;23;20005;-84
2023/08/10 00:11:41;;;;;;;3.70;2.55;;;13.30;99.90;;;-144.05;83.07;56965.66;6161238;23;20005;-84
2023/08/10 00:14:08;;;;;;;4.68;2.40;;;13.40;99.90;;;-144.05;83.10;56935.91;6161078;23;20028;-82
2023/08/10 00:16:33;;;;;;;5.43;2.75;;;13.30;99.90;;;-144.05;83.24;56938.03;6187881;23;20002;-84
2023/08/10 00:19:00;;;;;;;6.28;2.10;;;13.30;99.90;;;-144.05;83.16;56946.53;6186951;23;20051;-85
2023/08/10 00:21:27;;;;;;;6.40;2.28;;;13.30;99.90;;;-144.05;83.16;56935.91;6160351;23;20435;-83
2023/08/10 00:23:56;;;;;;;7.32;2.38;;;13.30;99.90;;;-144.05;82.96;56942.28;6160692;23;20017;-82
2023/08/10 00:26:25;;;;;;;3.65;2.30;;;13.30;99.90;;;-144.05;82.90;56933.78;6160448;23;20036;-84
2023/08/10 00:28:52;;;;;;;5.28;2.95;;;13.20;99.90;;;-144.05;82.88;56921.06;6186274;23;20017;-84
2023/08/10 00:31:18;;;;;;;5.63;2.70;;;13.20;99.90;;;-144.05;83.02;56946.53;6186424;23;20059;-80
2023/08/10 00:33:44;;;;;;;7.22;2.63;;;13.20;99.90;;;-144.05;82.91;56938.03;6186392;23;20009;-82
2023/08/10 00:36:11;;;;;;;5.57;2.65;;;13.20;99.90;;;-144.05;82.94;56931.66;6185815;23;20028;-83
2023/08/10 00:38:40;;;;;;;5.35;2.90;;;13.20;99.90;;;-144.05;83.17;56927.41;6160127;23;20074;-83
2023/08/10 00:41:07;;;;;;;4.25;2.85;;;13.20;99.90;;;-144.05;82.98;56916.81;6184867;23;20079;-82
2023/08/10 00:43:34;;;;;;;5.57;2.50;;;13.20;99.90;;;-144.05;83.39;56908.31;6158703;23;20008;-80
2023/08/10 00:46:01;;;;;;;5.18;2.35;;;13.20;99.90;;;-144.05;83.20;56925.28;6158608;23;20013;-80
2023/08/10 00:48:27;;;;;;;6.68;2.85;;;13.20;99.90;;;-144.05;83.24;56938.03;6158033;23;20450;-81
2023/08/10 00:50:54;;;;;;;3.83;2.40;;;13.10;99.90;;;-144.05;83.25;56965.66;6184542;23;20438;-80
2023/08/10 00:53:21;;;;;;;7.45;2.72;;;13.10;99.90;;;-144.05;83.58;56938.03;6184460;23;20346;-79
2023/08/10 00:55:51;;;;;;;4.22;2.53;;;13.20;99.90;;;-144.05;83.52;56935.91;6184593;23;20079;-80
2023/08/10 00:58:19;;;;;;;5.22;2.45;;;13.20;99.90;;;-144.05;83.71;56918.94;6184690;23;20032;-80
2023/08/10 01:00:47;;;;;;;4.40;2.33;;;13.20;99.90;;;-144.05;83.96;56904.06;6158455;23;20013;-80
2023/08/10 01:03:15;;;;;;;5.20;2.20;;;13.20;99.90;;;-144.05;83.91;56935.91;6158045;23;20070;-80
2023/08/10 01:06:20;;;;;;;4.65;2.60;;;13.20;99.90;;;-144.05;83.92;56921.06;6157968;23;20020;-80
2023/08/10 01:09:09;;;;;;;5.43;2.70;;;13.20;99.90;;;-144.05;84.02;56942.28;6158394;23;20009;-80
2023/08/10 01:11:53;;;;;;;4.97;2.58;;;13.20;99.90;;;-144.05;83.98;56921.06;6158061;23;20005;-82
2023/08/10 01:15:18;;;;;;;4.32;2.55;;;13.30;99.90;;;-144.05;84.07;56942.28;6186672;23;20009;-84
2023/08/10 01:17:56;;;;;;;7.88;2.72;;;13.30;99.90;;;-144.05;84.07;56938.03;6158234;23;20008;-80
2023/08/10 01:20:28;;;;;;;3.67;2.30;;;13.20;99.90;;;-144.05;83.96;56916.81;6185318;23;20009;-83
2023/08/10 01:23:10;;;;;;;5.07;2.60;;;13.20;99.90;;;-144.05;84.16;56942.28;6158011;23;20008;-81
2023/08/10 01:25:38;;;;;;;4.88;2.88;;;13.30;99.90;;;-144.05;84.20;56910.44;6184861;23;20005;-83
2023/08/10 01:28:05;;;;;;;5.28;2.65;;;13.30;99.90;;;-144.05;84.36;56942.28;6184487;23;20005;-81
2023/08/10 01:30:31;;;;;;;4.95;2.50;;;13.30;99.90;;;-144.05;84.16;56946.53;6158102;23;20031;-82
2023/08/10 01:32:58;;;;;;;4.15;1.92;;;13.30;99.90;;;-144.05;84.41;56933.78;6184399;23;20534;-80
2023/08/10 01:35:24;;;;;;;4.88;3.10;;;13.30;99.90;;;-144.05;84.48;56918.94;6158264;23;20012;-81
2023/08/10 01:37:50;;;;;;;5.22;2.75;;;13.30;99.90;;;-144.05;84.39;56906.19;6158040;23;20005;-82
2023/08/10 01:40:17;;;;;;;4.97;2.67;;;13.30;99.90;;;-144.05;84.67;56931.66;6158038;23;20013;-82
2023/08/10 01:42:44;;;;;;;7.28;3.22;;;13.30;99.90;;;-144.05;84.49;56946.53;6184419;23;20016;-82
2023/08/10 01:45:12;;;;;;;8.65;3.33;;;13.40;99.90;;;-144.05;84.37;56912.56;6157802;23;20088;-83
2023/08/10 01:48:12;;;;;;;7.82;3.05;;;13.30;99.90;;;-144.05;84.13;56931.66;6184724;23;20010;-80
2023/08/10 01:50:48;;;;;;;4.75;2.65;;;13.40;99.90;;;-144.05;84.13;56942.28;6189623;23;20017;-82
2023/08/10 01:53:24;;;;;;;5.10;2.38;;;13.30;99.90;;;-144.05;84.36;56921.06;6164558;23;20138;-82
2023/08/10 01:55:49;;;;;;;4.13;2.40;;;13.30;99.90;;;-144.05;84.36;56925.28;6162793;23;20012;-82
2023/08/10 01:58:16;;;;;;;3.08;2.47;;;13.30;99.90;;;-144.05;84.34;56918.94;6163115;23;20038;-81
2023/08/10 02:00:42;;;;;;;6.25;2.80;;;13.30;99.90;;;-144.05;84.46;56925.28;6184334;23;20005;-80
2023/08/10 02:03:08;;;;;;;5.07;2.70;;;13.30;99.90;;;-144.05;84.69;56946.53;6159434;23;20020;-80
2023/08/10 02:05:34;;;;;;;5.18;2.90;;;13.30;99.90;;;-144.05;84.61;56944.41;6184046;23;20466;-81
2023/08/10 02:08:00;;;;;;;4.53;2.60;;;13.30;99.90;;;-144.05;84.64;56946.53;6183930;23;20004;-79
2023/08/10 02:10:26;;;;;;;4.78;2.58;;;13.30;99.90;;;-144.05;84.76;56918.94;6157928;23;20009;-82
2023/08/10 02:12:52;;;;;;;6.97;2.97;;;13.30;99.90;;;-144.05;84.76;56933.78;6186176;23;20485;-86
2023/08/10 02:15:18;;;;;;;4.43;2.05;;;13.30;99.90;;;-144.05;84.72;56940.16;6187613;23;20016;-85
2023/08/10 02:17:44;;;;;;;6.93;2.75;;;13.30;99.90;;;-144.05;84.64;56938.03;6187594;23;20001;-85
2023/08/10 02:20:14;;;;;;;5.05;2.50;;;13.30;99.90;;;-144.05;84.79;56935.91;6187387;23;20104;-85
2023/08/10 02:22:51;;;;;;;4.45;2.97;;;13.30;99.90;;;-144.05;84.67;56921.06;6160971;23;20397;-85
2023/08/10 02:25:20;;;;;;;3.90;2.33;;;13.30;99.90;;;-144.05;84.74;56946.53;6187152;23;20012;-83
2023/08/10 02:27:48;;;;;;;4.40;2.50;;;13.30;99.90;;;-144.05;84.79;56923.19;6160549;23;20008;-85
2023/08/10 02:30:15;;;;;;;5.80;2.22;;;13.30;99.90;;;-144.05;84.78;56946.53;6186842;23;20367;-84
2023/08/10 02:32:41;;;;;;;4.10;2.90;;;13.30;99.90;;;-144.05;84.80;56942.28;6186558;23;20080;-85
2023/08/10 02:35:09;;;;;;;4.35;2.53;;;13.30;99.90;;;-144.05;85.01;56948.66;6186589;23;20001;-85
2023/08/10 02:37:35;;;;;;;5.50;3.25;;;13.30;99.90;;;-144.05;85.06;56933.78;6186320;23;20005;-85
2023/08/10 02:40:04;;;;;;;5.68;2.80;;;13.30;99.90;;;-144.05;85.07;56957.16;6159938;23;20020;-83
2023/08/10 02:42:30;;;;;;;4.47;2.92;;;13.40;99.90;;;-144.05;85.04;56938.03;6186067;23;20439;-83
2023/08/10 02:44:57;;;;;;;5.70;2.70;;;13.40;99.90;;;-144.05;85.01;56901.94;6188858;23;20005;-83
2023/08/10 02:47:23;;;;;;;5.43;2.58;;;13.40;99.90;;;-144.05;84.90;56906.19;6186153;23;20005;-83
2023/08/10 02:49:49;;;;;;;6.50;2.67;;;13.40;99.90;;;-144.05;85.04;56923.19;6158338;23;20093;-82
2023/08/10 02:52:15;;;;;;;6.78;3.08;;;13.30;99.90;;;-144.05;85.06;56931.66;6158217;23;20033;-83
2023/08/10 02:54:41;;;;;;;5.32;2.90;;;13.30;99.90;;;-144.05;85.01;56927.41;6158160;23;20005;-82
2023/08/10 02:57:07;;;;;;;5.80;3.33;;;13.30;99.90;;;-144.05;84.97;56931.66;6184519;23;20001;-83
2023/08/10 02:59:33;;;;;;;5.50;3.30;;;13.30;99.90;;;-144.05;84.82;56933.78;6184345;23;20036;-82
2023/08/10 03:01:59;;;;;;;6.25;2.85;;;13.30;99.90;;;-144.05;84.66;56935.91;6184131;23;20044;-83
2023/08/10 03:04:25;;;;;;;8.75;2.67;;;13.30;99.90;;;-144.05;84.69;56931.66;6157732;23;20435;-84
2023/08/10 03:06:51;;;;;;;6.35;3.33;;;13.30;99.90;;;-144.05;84.72;56952.91;6161588;23;20016;-85
2023/08/10 03:09:17;;;;;;;4.70;2.95;;;13.40;99.90;;;-144.05;84.69;56948.66;6159530;23;20013;-85
2023/08/10 03:11:43;;;;;;;4.10;2.70;;;13.40;99.90;;;-144.05;84.62;56929.53;6160039;23;20037;-85
2023/08/10 03:14:09;;;;;;;4.97;2.90;;;13.40;99.90;;;-144.05;84.70;56942.28;6186182;23;20005;-85
2023/08/10 03:16:35;;;;;;;6.68;3.63;;;13.40;99.90;;;-144.05;84.74;56942.28;6159334;23;19998;-84
2023/08/10 03:19:01;;;;;;;7.97;3.10;;;13.40;99.90;;;-144.05;84.69;56931.66;6159171;23;20016;-84
2023/08/10 03:21:27;;;;;;;6.63;2.95;;;13.40;99.90;;;-144.05;84.64;56944.41;6159826;23;20106;-83
2023/08/10 03:23:52;;;;;;;5.90;2.60;;;13.40;99.90;;;-144.05;84.71;56955.03;6168268;23;20045;-86
2023/08/10 03:26:19;;;;;;;6.53;3.15;;;13.40;99.90;;;-144.05;84.54;56925.28;6184755;23;20060;-85
2023/08/10 03:28:46;;;;;;;5.20;2.75;;;13.40;99.90;;;-144.05;84.53;56946.53;6186082;23;20005;-87
2023/08/10 03:31:13;;;;;;;5.50;2.83;;;13.40;99.90;;;-144.05;84.41;56918.94;6184191;23;20009;-86
2023/08/10 03:33:40;;;;;;;4.85;3.22;;;13.40;99.90;;;-144.05;84.41;56938.03;6185400;23;20308;-85
2023/08/10 03:36:07;;;;;;;6.22;3.50;;;13.40;99.90;;;-144.05;84.37;56925.28;6185896;23;20447;-86
2023/08/10 03:38:33;;;;;;;8.73;3.50;;;13.40;99.90;;;-144.05;84.54;56929.53;6186494;23;20009;-86
2023/08/10 03:40:59;;;;;;;5.97;3.08;;;13.40;99.90;;;-144.05;84.51;56933.78;6186498;23;20013;-85
2023/08/10 03:43:25;;;;;;;7.00;3.00;;;13.40;99.90;;;-144.05;84.35;56946.53;6188786;23;20015;-83
2023/08/10 03:45:51;;;;;;;6.50;2.80;;;13.40;99.90;;;-144.05;84.35;56916.81;6189227;23;20442;-85
2023/08/10 03:48:18;;;;;;;5.25;3.40;;;13.40;99.90;;;-144.05;84.27;56938.03;6196223;23;20005;-88
2023/08/10 03:50:44;;;;;;;5.18;2.92;;;13.40;99.90;;;-144.05;84.14;56912.56;6191802;23;20009;-89
2023/08/10 03:53:10;;;;;;;5.18;2.90;;;13.40;99.90;;;-144.05;84.24;56935.91;6191794;23;20123;-87
2023/08/10 03:55:36;;;;;;;5.32;2.80;;;13.30;99.90;;;-144.05;84.05;56931.66;6187678;23;20031;-86
2023/08/10 03:58:02;;;;;;;6.18;2.85;;;13.30;99.90;;;-144.05;83.82;56923.19;6187756;23;20435;-85
2023/08/10 04:00:28;;;;;;;7.63;3.10;;;13.30;99.90;;;-144.05;84.06;56935.91;6185792;23;20093;-85
2023/08/10 04:02:54;;;;;;;4.10;3.08;;;13.20;99.90;;;-144.05;83.88;56921.06;6186440;23;20009;-84
2023/08/10 04:05:20;;;;;;;6.32;2.72;;;13.20;99.90;;;-144.05;84.01;56929.53;6185805;23;20035;-84
2023/08/10 04:07:47;;;;;;;5.45;2.60;;;13.20;99.90;;;-144.05;84.07;56952.91;6186144;23;20012;-86
2023/08/10 04:10:13;;;;;;;4.10;3.13;;;13.10;99.90;;;-144.05;84.22;56938.03;6186323;23;20009;-88
2023/08/10 04:12:39;;;;;;;6.60;3.30;;;13.10;99.90;;;-144.05;84.38;56921.06;6189141;23;20096;-87
2023/08/10 04:15:07;;;;;;;5.15;2.72;;;13.00;99.90;;;-144.05;84.52;56931.66;6190459;23;20431;-85
2023/08/10 04:17:32;;;;;;;6.88;3.05;;;13.00;99.90;;;-144.05;84.60;56961.41;6187393;23;20001;-86
2023/08/10 04:19:59;;;;;;;6.63;3.08;;;13.00;99.90;;;-144.05;84.81;56959.28;6190081;23;20019;-87
2023/08/10 04:22:25;;;;;;;10.55;3.67;;;13.00;99.90;;;-144.05;84.83;56929.53;6197144;23;20001;-82
2023/08/10 04:24:51;;;;;;;9.88;3.88;;;13.00;99.90;;;-144.05;85.16;56938.03;6187375;23;20100;-85
2023/08/10 04:27:18;;;;;;;5.07;3.35;;;13.00;99.90;;;-144.05;84.97;56935.91;6160458;23;20043;-85
2023/08/10 04:29:46;;;;;;;6.63;3.35;;;12.90;99.90;;;-144.05;85.26;56918.94;6159898;23;20009;-86
2023/08/10 04:32:14;;;;;;;4.93;2.70;;;13.00;99.90;;;-144.05;85.17;56935.91;6162314;23;20397;-87
2023/08/10 04:34:41;;;;;;;6.35;3.45;;;13.00;99.90;;;-144.05;85.44;56946.53;6160775;23;20009;-87
2023/08/10 04:37:07;;;;;;;8.40;3.53;;;13.00;99.90;;;-144.05;85.22;56933.78;6159739;23;20355;-85
2023/08/10 04:39:33;;;;;;;9.77;3.65;;;13.00;99.90;;;-144.05;85.53;56933.78;6160527;23;20101;-84
2023/08/10 04:41:59;;;;;;;4.93;3.70;;;13.10;99.90;;;-144.05;85.39;56929.53;6160337;23;20459;-88
2023/08/10 04:44:25;;;;;;;7.82;3.05;;;13.10;99.90;;;-144.05;85.52;56944.41;6159768;23;20386;-84
2023/08/10 04:46:52;;;;;;;4.97;3.50;;;13.00;99.90;;;-144.05;85.41;56929.53;6161909;23;20443;-87
2023/08/10 04:49:18;;;;;;;6.25;3.53;;;13.00;99.90;;;-144.05;85.62;56923.19;6189466;23;20457;-87
2023/08/10 04:51:44;;;;;;;5.95;3.63;;;13.00;99.90;;;-144.05;85.56;56963.53;6162441;23;20024;-88
2023/08/10 04:54:10;;;;;;;7.80;3.92;;;13.10;99.90;;;-144.05;85.58;56925.28;6166428;23;20063;-88
2023/08/10 04:56:36;;;;;;;5.82;3.03;;;13.00;99.90;;;-144.05;85.50;56957.16;6166682;23;20028;-88
2023/08/10 04:59:03;;;;;;;7.97;3.38;;;13.10;99.90;;;-144.05;85.67;56910.44;6164938;23;20040;-87
2023/08/10 05:01:30;;;;;;;8.18;3.55;;;13.10;99.90;;;-144.05;85.74;56952.91;6164922;23;20009;-88
2023/08/10 05:03:56;;;;;;;5.90;3.25;;;13.10;99.90;;;-144.05;85.56;56933.78;6190989;23;20009;-87
2023/08/10 05:06:22;;;;;;;4.40;3.20;;;13.20;99.90;;;-144.05;85.68;56957.16;6164197;23;20017;-88
2023/08/10 05:08:48;;;;;;;8.35;3.95;;;13.30;99.90;;;-144.05;85.53;56944.41;6163742;23;20009;-88
2023/08/10 05:11:15;;;;;;;8.65;3.30;;;13.20;99.90;;;-144.05;85.52;56927.41;6189879;23;20092;-88
2023/08/10 05:13:41;;;;;;;7.93;4.15;;;13.30;99.90;;;-144.05;85.36;56946.53;6171036;23;20311;-85
2023/08/10 05:16:07;;;;;;;8.20;4.25;;;13.30;99.90;;;-144.05;85.37;56940.16;6163981;23;20008;-84
2023/08/10 05:18:33;;;;;;;11.43;4.15;;;13.30;99.90;;;-144.05;85.23;56957.16;6189390;23;20001;-86
2023/08/10 05:21:01;;;;;;;9.65;4.38;;;13.30;99.90;;;-144.05;85.00;56944.41;6162484;23;20009;-86
2023/08/10 05:23:27;;;;;;;8.82;4.10;;;13.40;99.90;;;-144.05;84.72;56931.66;6167976;23;20009;-87
2023/08/10 05:25:53;;;;;;;10.80;4.88;;;13.40;99.90;;;-144.05;84.46;56931.66;6186402;23;20007;-84
2023/08/10 05:28:19;;;;;;;5.85;3.70;;;13.40;99.90;;;-144.05;84.24;56925.28;6188033;23;20104;-86
2023/08/10 05:30:45;;;;;;;4.38;3.53;;;13.40;99.90;;;-144.05;84.01;56914.69;6187261;23;20005;-85
2023/08/10 05:33:11;;;;;;;6.05;3.65;;;13.50;99.90;;;-144.05;83.94;56938.03;6188875;23;20073;-87
2023/08/10 05:35:37;;;;;;;7.40;3.85;;;13.60;99.90;;;-144.05;83.66;56952.91;6188327;23;20092;-87
2023/08/10 05:38:03;;;;;;;5.20;3.47;;;13.60;99.90;;;-144.05;83.38;56938.03;6189347;23;20052;-85
2023/08/10 05:40:29;;;;;;;8.95;3.60;;;13.70;99.90;;;-144.05;82.88;56933.78;6189084;23;20055;-86
2023/08/10 05:42:55;;;;;;;9.27;3.55;;;13.80;99.90;;;-144.05;82.71;56948.66;6187401;23;20048;-87
2023/08/10 05:45:22;;;;;;;6.25;3.35;;;13.90;99.90;;;-144.05;82.47;56946.53;6189797;23;20486;-87
2023/08/10 05:47:50;;;;;;;4.55;2.85;;;13.90;99.90;;;-144.05;82.26;56929.53;6189208;23;20012;-88
2023/08/10 05:50:17;;;;;;;7.75;3.45;;;14.00;99.90;;;-144.05;81.91;56931.66;6190012;23;20065;-89
2023/08/10 05:52:45;;;;;;;10.38;4.05;;;14.20;99.90;;;-144.05;81.51;56933.78;6189481;23;20091;-85
2023/08/10 05:55:14;;;;;;;8.50;3.78;;;14.20;99.90;;;-144.05;80.96;56931.66;6189890;23;20016;-86
2023/08/10 05:57:41;;;;;;;8.27;4.03;;;14.30;99.90;;;-144.05;80.48;56914.69;6190509;23;20071;-88
2023/08/10 06:00:12;;;;;;;6.15;3.47;;;14.40;99.90;;;-144.05;80.22;56952.91;6189419;23;20028;-87
2023/08/10 06:02:38;;;;;;;9.85;3.58;;;14.50;99.90;;;-144.05;79.69;56923.19;6191311;23;20068;-89
2023/08/10 06:05:06;;;;;;;11.75;3.90;;;14.70;99.90;;;-144.05;79.30;56942.28;6189540;23;20013;-87
2023/08/10 06:07:36;;;;;;;10.68;4.07;;;14.80;99.90;;;-144.05;78.90;56944.41;6193028;23;20012;-86
2023/08/10 06:10:04;;;;;;;8.95;3.83;;;14.90;99.90;;;-144.05;78.13;56944.41;6190495;23;20009;-85
2023/08/10 06:12:31;;;;;;;9.90;4.43;;;15.00;99.90;;;-144.05;77.35;56946.53;6189527;23;20437;-89
2023/08/10 06:14:58;;;;;;;10.88;4.40;;;15.10;99.90;;;-144.05;76.35;56955.03;6189025;23;20005;-85
2023/08/10 06:17:24;;;;;;;11.98;4.03;;;15.20;99.90;;;-144.05;75.86;56927.41;6190951;23;20009;-87
2023/08/10 06:19:52;;;;;;;12.82;4.57;;;15.20;99.90;;;-144.05;74.57;56921.06;6189860;23;20439;-85
2023/08/10 06:22:19;;;;;;;11.40;4.70;;;15.50;99.90;;;-144.05;72.06;56933.78;6189807;23;20029;-86
2023/08/10 06:24:46;;;;;;;8.73;4.15;;;15.70;99.90;;;-144.05;70.97;56927.41;6189485;23;20017;-87
2023/08/10 06:27:13;;;;;;;14.23;4.75;;;16.10;99.90;;;-144.05;68.78;56946.53;6190935;23;20005;-88
2023/08/10 06:29:40;;;;;;;10.15;4.05;;;16.30;99.90;;;-144.05;67.45;56931.66;6189012;23;20005;-88
2023/08/10 06:32:07;;;;;;;11.77;4.15;;;16.60;99.90;;;-144.05;66.58;56959.28;6188632;23;20462;-88
2023/08/10 06:34:34;;;;;;;11.25;4.10;;;16.90;99.90;;;-144.05;65.39;56938.03;6199465;23;20005;-87
2023/08/10 06:37:00;;;;;;;6.10;3.25;;;17.20;99.90;;;-144.05;63.60;56938.03;6193008;23;20005;-88
2023/08/10 06:39:27;;;;;;;10.63;3.83;;;17.40;99.90;;;-144.05;62.99;56940.16;6190032;23;20013;-87
2023/08/10 06:41:53;;;;;;;6.95;3.15;;;17.50;99.90;;;-144.05;61.70;56974.16;6192103;23;20004;-85
2023/08/10 06:44:22;;;;;;;9.40;3.10;;;17.80;99.90;;;-144.05;60.73;56942.28;6192793;23;20005;-87
2023/08/10 06:46:48;;;;;;;5.68;2.45;;;17.90;99.90;;;-144.05;59.46;56957.16;6189682;23;20009;-86
2023/08/10 06:49:16;;;;;;;8.40;2.70;;;18.20;99.90;;;-144.05;58.19;56961.41;6189045;23;20009;-87
2023/08/10 06:51:42;;;;;;;11.90;3.15;;;18.50;99.90;;;-144.05;57.56;56965.66;6189643;23;20443;-85
2023/08/10 06:54:08;;;;;;;9.07;3.03;;;18.70;99.90;;;-144.05;56.50;56961.41;6188429;23;20005;-87
2023/08/10 06:56:34;;;;;;;9.23;3.58;;;18.90;99.90;;;-144.05;56.78;56942.28;6189165;23;20025;-85
2023/08/10 06:59:00;;;;;;;5.60;2.22;;;18.70;99.90;;;-144.05;56.10;56961.41;6189313;23;20016;-87
2023/08/10 07:01:26;;;;;;;4.60;2.80;;;18.70;99.90;;;-144.05;56.71;56931.66;6189790;23;20418;-87
2023/08/10 07:03:51;;;;;;;6.82;3.33;;;18.80;99.90;;;-144.05;55.07;56972.03;6187469;23;20055;-87
2023/08/10 07:06:17;;;;;;;9.35;3.20;;;19.10;99.90;;;-144.05;53.39;56972.03;6189050;23;20039;-86
2023/08/10 07:08:43;;;;;;;7.70;2.50;;;19.20;99.90;;;-144.05;54.83;56957.16;6189166;23;20016;-87
2023/08/10 07:11:09;;;;;;;7.90;2.75;;;19.50;99.90;;;-144.05;52.10;56984.78;6190663;23;20005;-86
2023/08/10 07:13:35;;;;;;;11.40;2.40;;;19.60;99.90;;;-144.05;53.15;56965.66;6188910;23;20072;-85
2023/08/10 07:16:01;;;;;;;6.30;2.13;;;19.70;99.90;;;-144.05;52.84;56978.41;6189467;23;20016;-87
2023/08/10 07:18:27;;;;;;;6.30;2.33;;;19.90;99.90;;;-144.05;52.73;56969.91;6191643;23;20001;-87
2023/08/10 07:20:55;;;;;;;4.63;1.52;;;20.20;99.90;;;-144.05;51.37;56980.53;6192686;23;20100;-88
2023/08/10 07:23:21;;;;;;;4.40;1.60;;;20.40;99.90;;;-144.05;49.80;56972.03;6192412;23;20017;-85
2023/08/10 07:25:47;;;;;;;6.75;1.77;;;20.60;99.90;;;-144.05;48.26;56989.00;6190577;23;20390;-87
2023/08/10 07:28:13;;;;;;;5.72;1.48;;;20.40;99.90;;;-144.05;49.50;56980.53;6191225;23;20005;-87
2023/08/10 07:30:39;;;;;;;7.57;1.45;;;20.30;99.90;;;-144.05;49.83;56993.25;6191722;23;20036;-86
2023/08/10 07:33:06;;;;;;;7.05;2.17;;;20.20;99.90;;;-144.05;48.74;56957.16;6193138;23;20009;-87
2023/08/10 07:35:32;;;;;;;7.15;2.30;;;19.90;99.90;;;-144.05;50.15;56974.16;6192198;23;20019;-88
2023/08/10 07:37:58;;;;;;;8.25;2.25;;;19.80;99.90;;;-144.05;48.87;56976.28;6193667;23;20338;-87
2023/08/10 07:40:25;;;;;;;7.40;1.80;;;19.70;99.90;;;-144.05;50.10;56957.16;6194217;23;20008;-90
2023/08/10 07:42:51;;;;;;;9.30;2.08;;;20.10;99.90;;;-144.05;47.99;56984.78;6192313;23;20036;-87
2023/08/10 07:45:17;;;;;;;6.32;2.00;;;20.40;99.90;;;-144.05;48.92;56984.78;6191802;23;20446;-87
2023/08/10 07:47:43;;;;;;;5.68;1.70;;;20.60;99.90;;;-144.05;48.35;56982.66;6192430;23;20446;-87
2023/08/10 07:50:10;;;;;;;4.88;1.52;;;20.80;99.90;;;-144.05;46.66;56982.66;6191642;23;20016;-85
2023/08/10 07:52:36;;;;;;;8.77;2.10;;;20.90;99.90;;;-144.05;45.39;56993.25;6193158;23;20001;-85
2023/08/10 07:55:03;;;;;;;10.80;2.08;;;20.80;99.90;;;-144.05;45.13;56982.66;6195183;23;20350;-88
2023/08/10 07:57:30;;;;;;;6.00;2.00;;;21.00;99.90;;;-144.05;46.12;56999.63;6193606;23;20015;-86
2023/08/10 07:59:56;;;;;;;8.75;2.08;;;21.20;99.90;;;-144.05;45.33;56993.25;6193108;23;20035;-86
2023/08/10 08:02:22;;;;;;;9.80;2.05;;;21.20;99.90;;;-144.05;45.50;57018.75;6191003;23;20013;-87
2023/08/10 08:04:48;;;;;;;4.05;1.95;;;21.20;99.90;;;-144.05;45.52;57018.75;6190105;23;20497;-90
2023/08/10 08:07:14;;;;;;;6.07;1.60;;;21.20;99.90;;;-144.05;45.68;57006.00;6190196;23;20017;-86
2023/08/10 08:09:40;;;;;;;5.32;1.80;;;21.20;99.90;;;-144.05;44.36;57010.25;6190223;23;20009;-87
2023/08/10 08:12:06;;;;;;;7.32;1.60;;;21.50;99.90;;;-144.05;44.17;56991.13;6195754;23;20032;-88
2023/08/10 08:14:32;;;;;;;4.53;1.50;;;21.60;99.90;;;-144.05;42.84;57020.88;6198941;23;20005;-88
2023/08/10 08:16:58;;;;;;;3.45;1.40;;;21.70;99.90;;;-144.05;41.31;57008.13;6192962;23;20020;-88
2023/08/10 08:19:24;;;;;;;4.57;1.40;;;21.50;99.90;;;-144.05;40.27;57018.75;6200245;23;20017;-84
2023/08/10 08:21:49;;;;;;;5.63;1.52;;;21.70;99.90;;;-144.05;40.98;56995.38;6191499;23;20138;-85
2023/08/10 08:24:17;;;;;;;5.82;1.48;;;21.70;99.90;;;-144.05;41.01;57027.25;6190009;23;20020;-86
2023/08/10 08:26:42;;;;;;;5.13;1.45;;;21.60;99.90;;;-144.05;41.08;57001.75;6190520;23;20013;-85
2023/08/10 08:29:08;;;;;;;6.13;1.50;;;21.80;99.90;;;-144.05;41.64;57029.38;6189690;23;20092;-86
2023/08/10 08:31:35;;;;;;;4.75;1.60;;;22.10;99.90;;;-144.05;40.52;57020.88;6191680;23;20012;-86
2023/08/10 08:34:01;;;;;;;4.35;1.38;;;22.30;99.90;;;-144.05;39.93;57020.88;6192205;23;20446;-86
2023/08/10 08:36:27;;;;;;;5.32;1.40;;;22.20;99.90;;;-144.05;38.90;57035.75;6190653;23;20092;-87
2023/08/10 08:38:53;;;;;;;6.53;1.55;;;22.40;99.90;;;-144.05;38.14;57023.00;6190880;23;20032;-87
2023/08/10 08:41:25;;;;;;;6.10;1.60;;;22.50;99.90;;;-144.05;39.35;57042.13;6190590;23;20005;-87
2023/08/10 08:43:52;;;;;;;6.72;1.80;;;22.40;99.90;;;-144.05;38.96;57027.25;6190253;23;20044;-88
2023/08/10 08:46:29;;;;;;;2.88;1.40;;;22.50;99.90;;;-144.05;38.12;57040.00;6190293;23;20020;-89
2023/08/10 08:48:55;;;;;;;4.50;1.20;;;22.60;99.90;;;-144.05;36.06;57050.63;6191526;23;20024;-88
2023/08/10 08:51:23;;;;;;;6.18;1.45;;;22.70;99.90;;;-144.05;36.69;57033.63;6191557;23;20025;-86
2023/08/10 08:53:52;;;;;;;3.50;0.95;;;22.80;99.90;;;-144.05;37.13;57035.75;6192963;23;20005;-86
2023/08/10 08:56:19;;;;;;;3.35;1.30;;;22.80;99.90;;;-144.05;35.94;57046.38;6196343;23;20009;-87
2023/08/10 08:58:45;;;;;;;4.07;1.20;;;22.80;99.90;;;-144.05;35.53;57029.38;6193534;23;20009;-86
2023/08/10 09:01:14;;;;;;;3.40;0.98;;;22.70;99.90;;;-144.05;36.61;57042.13;6194638;23;20516;-85
2023/08/10 09:03:41;;;;;;;5.70;1.33;;;22.90;99.90;;;-144.05;34.51;57023.00;6195239;23;20008;-88
2023/08/10 09:06:07;;;;;;;4.50;1.35;;;23.00;99.90;;;-144.05;34.95;57076.09;6196656;23;20037;-88
2023/08/10 09:08:35;;;;;;;5.00;1.45;;;23.20;99.90;;;-144.05;35.64;57044.25;6195019;23;20036;-87
2023/08/10 09:11:02;;;;;;;6.03;1.48;;;23.30;99.90;;;-144.05;35.53;57071.84;6195787;23;20220;-89
2023/08/10 09:13:28;;;;;;;3.30;1.15;;;23.30;99.90;;;-144.05;35.76;57061.22;6195282;23;20021;-87
2023/08/10 09:16:14;;;;;;;5.22;1.48;;;23.50;99.90;;;-144.05;35.43;57056.97;6196284;23;20012;-86
2023/08/10 09:18:43;;;;;;;;;;;23.50;99.90;;;-144.05;34.83;57059.09;6196363;23;20016;-86
2023/08/10 09:21:15;;;;;;;3.85;1.20;;;23.40;99.90;;;-144.05;34.32;57044.25;6221284;23;20055;-89
2023/08/10 09:23:45;;;;;;;4.38;1.25;;;23.10;99.90;;;-144.05;36.15;57071.84;6189726;23;20446;-85
2023/08/10 09:26:16;;;;;;;5.05;1.40;;;23.40;99.90;;;-144.05;35.69;57065.47;6185933;23;20435;-84
2023/08/10 09:28:43;;;;;;;3.47;1.30;;;23.40;99.90;;;-144.05;35.26;57065.47;6184403;23;20013;-84
2023/08/10 09:31:11;;;;;;;3.47;1.30;;;23.40;99.90;;;-144.05;36.92;57046.38;6159465;23;20001;-83
2023/08/10 09:33:38;;;;;;;5.47;1.77;;;23.20;99.90;;;-144.05;34.15;57042.13;6149531;23;20443;-82
2023/08/10 09:36:08;;;;;;;4.07;1.55;;;23.20;99.90;;;-144.05;35.00;57040.00;6129133;23;20380;-83
2023/08/10 09:38:35;;;;;;;3.40;1.52;;;23.30;99.90;;;-144.05;34.92;57050.63;6155226;23;20001;-82
2023/08/10 09:41:15;;;;;;;3.47;1.33;;;23.30;99.90;;;-144.05;34.78;57046.38;6129001;23;20009;-82
2023/08/10 09:43:44;;;;;;;5.65;1.70;;;23.70;99.90;;;-144.05;34.33;57052.75;6155892;23;20040;-82
2023/08/10 09:46:16;;;;;;;4.15;1.50;;;23.70;99.90;;;-144.05;34.73;57093.09;6129584;23;20073;-83
2023/08/10 09:48:49;;;;;;;4.55;1.42;;;23.80;99.90;;;-144.05;33.51;57048.50;6129489;23;20005;-84
2023/08/10 09:51:16;;;;;;;4.50;1.20;;;23.60;98.70;;;-144.05;33.60;57069.72;6129936;23;20005;-83
2023/08/10 09:53:43;;;;;;;4.15;1.27;;;23.70;99.30;;;-144.05;33.98;57078.22;6129669;23;20351;-84
2023/08/10 09:56:09;;;;;;;4.20;1.27;;;24.10;99.90;;;-144.05;34.91;57082.47;6129470;23;20010;-85
2023/08/10 09:58:39;;;;;;;3.03;1.23;;;24.40;99.90;;;-144.05;34.48;57088.84;6129644;23;20013;-85
2023/08/10 10:01:07;;;;;;;4.93;1.42;;;24.60;99.90;;;-144.05;33.75;57084.59;6129842;23;20384;-84
2023/08/10 10:03:34;;;;;;;6.72;1.67;;;24.60;98.80;;;-144.05;33.40;57076.09;6130376;23;20088;-83
2023/08/10 10:06:02;;;;;;;3.38;1.10;;;24.60;98.30;;;-144.05;33.98;57103.72;6129049;23;20060;-81
2023/08/10 10:08:33;;;;;;;3.95;1.40;;;24.50;98.70;;;-144.05;34.01;57110.09;6155180;23;20009;-84